sensor_id;sensor_type;location;lat;lon;timestamp;temperature;humidity
40636;DHT22;26642;55.766;37.828;2022-12-18T00:01:46;7.70;59.30
40636;DHT22;26642;55.766;37.828;2022-12-18T00:04:23;7.70;59.20
40636;DHT22;26642;55.766;37.828;2022-12-18T00:06:50;7.60;59.20
40636;DHT22;26642;55.766;37.828;2022-12-18T00:09:17;7.60;59.10
40636;DHT22;26642;55.766;37.828;2022-12-18T00:11:43;7.70;59.00
40636;DHT22;26642;55.766;37.828;2022-12-18T00:14:11;7.60;58.90
40636;DHT22;26642;55.766;37.828;2022-12-18T00:16:37;7.60;58.80
40636;DHT22;26642;55.766;37.828;2022-12-18T00:19:04;7.60;58.90
40636;DHT22;26642;55.766;37.828;2022-12-18T00:21:31;7.60;58.90
40636;DHT22;26642;55.766;37.828;2022-12-18T00:23:59;7.60;58.90
40636;DHT22;26642;55.766;37.828;2022-12-18T00:26:31;7.60;58.90
40636;DHT22;26642;55.766;37.828;2022-12-18T00:29:04;7.60;58.90
40636;DHT22;26642;55.766;37.828;2022-12-18T00:31:31;7.50;58.80
40636;DHT22;26642;55.766;37.828;2022-12-18T00:33:59;7.50;58.70
40636;DHT22;26642;55.766;37.828;2022-12-18T00:36:27;7.50;58.70
40636;DHT22;26642;55.766;37.828;2022-12-18T00:38:55;7.50;58.60
40636;DHT22;26642;55.766;37.828;2022-12-18T00:41:22;7.50;58.60
40636;DHT22;26642;55.766;37.828;2022-12-18T00:44:09;7.50;58.70
40636;DHT22;26642;55.766;37.828;2022-12-18T00:46:35;7.50;58.70
40636;DHT22;26642;55.766;37.828;2022-12-18T00:49:01;7.50;58.80
40636;DHT22;26642;55.766;37.828;2022-12-18T00:51:27;7.40;58.70
40636;DHT22;26642;55.766;37.828;2022-12-18T00:53:54;7.50;58.80
40636;DHT22;26642;55.766;37.828;2022-12-18T00:56:23;7.50;58.80
40636;DHT22;26642;55.766;37.828;2022-12-18T00:58:49;7.40;58.70
40636;DHT22;26642;55.766;37.828;2022-12-18T01:01:16;7.40;58.80
40636;DHT22;26642;55.766;37.828;2022-12-18T01:03:42;7.40;58.90
40636;DHT22;26642;55.766;37.828;2022-12-18T01:06:10;7.40;59.00
40636;DHT22;26642;55.766;37.828;2022-12-18T01:08:37;7.40;59.00
40636;DHT22;26642;55.766;37.828;2022-12-18T01:11:12;7.40;58.90
40636;DHT22;26642;55.766;37.828;2022-12-18T01:13:40;7.30;58.80
40636;DHT22;26642;55.766;37.828;2022-12-18T01:16:06;7.30;58.70
40636;DHT22;26642;55.766;37.828;2022-12-18T01:18:35;7.30;58.70
40636;DHT22;26642;55.766;37.828;2022-12-18T01:21:04;7.30;58.70
40636;DHT22;26642;55.766;37.828;2022-12-18T01:23:30;7.30;58.70
40636;DHT22;26642;55.766;37.828;2022-12-18T01:26:07;7.30;58.70
40636;DHT22;26642;55.766;37.828;2022-12-18T01:28:35;7.30;58.70
40636;DHT22;26642;55.766;37.828;2022-12-18T01:33:41;7.30;58.70
40636;DHT22;26642;55.766;37.828;2022-12-18T01:36:08;7.30;58.60
40636;DHT22;26642;55.766;37.828;2022-12-18T01:38:34;7.30;58.60
40636;DHT22;26642;55.766;37.828;2022-12-18T01:41:01;7.30;58.70
40636;DHT22;26642;55.766;37.828;2022-12-18T01:44:00;7.20;58.50
40636;DHT22;26642;55.766;37.828;2022-12-18T01:46:27;7.20;58.60
40636;DHT22;26642;55.766;37.828;2022-12-18T01:48:57;7.20;58.70
40636;DHT22;26642;55.766;37.828;2022-12-18T01:51:27;7.30;58.70
40636;DHT22;26642;55.766;37.828;2022-12-18T01:53:53;7.20;58.70
40636;DHT22;26642;55.766;37.828;2022-12-18T01:56:20;7.20;58.90
40636;DHT22;26642;55.766;37.828;2022-12-18T01:59:03;7.30;59.00
40636;DHT22;26642;55.766;37.828;2022-12-18T02:01:31;7.20;59.00
40636;DHT22;26642;55.766;37.828;2022-12-18T02:04:30;7.20;59.00
40636;DHT22;26642;55.766;37.828;2022-12-18T02:09:35;7.20;59.20
40636;DHT22;26642;55.766;37.828;2022-12-18T02:12:17;7.20;59.30
40636;DHT22;26642;55.766;37.828;2022-12-18T02:15:20;7.20;59.40
40636;DHT22;26642;55.766;37.828;2022-12-18T02:17:54;7.20;59.50
40636;DHT22;26642;55.766;37.828;2022-12-18T02:20:45;7.20;59.50
40636;DHT22;26642;55.766;37.828;2022-12-18T02:26:36;7.20;59.60
40636;DHT22;26642;55.766;37.828;2022-12-18T02:29:21;7.20;59.60
40636;DHT22;26642;55.766;37.828;2022-12-18T02:31:57;7.20;59.60
40636;DHT22;26642;55.766;37.828;2022-12-18T02:34:26;7.20;59.60
40636;DHT22;26642;55.766;37.828;2022-12-18T02:36:54;7.20;59.60
40636;DHT22;26642;55.766;37.828;2022-12-18T02:39:22;7.20;59.60
40636;DHT22;26642;55.766;37.828;2022-12-18T02:42:02;7.20;59.70
40636;DHT22;26642;55.766;37.828;2022-12-18T02:44:47;7.20;59.60
40636;DHT22;26642;55.766;37.828;2022-12-18T02:47:23;7.20;59.60
40636;DHT22;26642;55.766;37.828;2022-12-18T02:50:26;7.20;59.60
40636;DHT22;26642;55.766;37.828;2022-12-18T02:56:11;7.20;59.60
40636;DHT22;26642;55.766;37.828;2022-12-18T03:01:46;7.20;59.70
40636;DHT22;26642;55.766;37.828;2022-12-18T03:04:43;7.20;59.80
40636;DHT22;26642;55.766;37.828;2022-12-18T03:07:26;7.20;59.90
40636;DHT22;26642;55.766;37.828;2022-12-18T03:09:56;7.20;59.90
40636;DHT22;26642;55.766;37.828;2022-12-18T03:12:35;7.20;59.90
40636;DHT22;26642;55.766;37.828;2022-12-18T03:15:27;7.20;60.00
40636;DHT22;26642;55.766;37.828;2022-12-18T03:18:05;7.20;59.90
40636;DHT22;26642;55.766;37.828;2022-12-18T03:20:34;7.20;60.00
40636;DHT22;26642;55.766;37.828;2022-12-18T03:23:11;7.20;60.00
40636;DHT22;26642;55.766;37.828;2022-12-18T03:25:41;7.20;60.10
40636;DHT22;26642;55.766;37.828;2022-12-18T03:28:13;7.20;60.00
40636;DHT22;26642;55.766;37.828;2022-12-18T03:30:43;7.20;60.00
40636;DHT22;26642;55.766;37.828;2022-12-18T03:33:14;7.20;60.10
40636;DHT22;26642;55.766;37.828;2022-12-18T03:35:45;7.20;60.10
40636;DHT22;26642;55.766;37.828;2022-12-18T03:38:12;7.20;60.10
40636;DHT22;26642;55.766;37.828;2022-12-18T03:40:59;7.20;60.00
40636;DHT22;26642;55.766;37.828;2022-12-18T03:46:28;7.20;60.00
40636;DHT22;26642;55.766;37.828;2022-12-18T03:49:03;7.20;60.00
40636;DHT22;26642;55.766;37.828;2022-12-18T03:51:50;7.20;60.00
40636;DHT22;26642;55.766;37.828;2022-12-18T03:54:18;7.20;60.00
40636;DHT22;26642;55.766;37.828;2022-12-18T03:57:09;7.20;60.00
40636;DHT22;26642;55.766;37.828;2022-12-18T03:59:37;7.20;60.00
40636;DHT22;26642;55.766;37.828;2022-12-18T04:02:06;7.20;60.00
40636;DHT22;26642;55.766;37.828;2022-12-18T04:04:38;7.20;59.90
40636;DHT22;26642;55.766;37.828;2022-12-18T04:07:05;7.20;60.00
40636;DHT22;26642;55.766;37.828;2022-12-18T04:09:34;7.20;60.00
40636;DHT22;26642;55.766;37.828;2022-12-18T04:12:01;7.20;60.00
40636;DHT22;26642;55.766;37.828;2022-12-18T04:14:27;7.20;60.00
40636;DHT22;26642;55.766;37.828;2022-12-18T04:16:55;7.20;60.00
40636;DHT22;26642;55.766;37.828;2022-12-18T04:19:27;7.20;60.00
40636;DHT22;26642;55.766;37.828;2022-12-18T04:21:55;7.20;59.90
40636;DHT22;26642;55.766;37.828;2022-12-18T04:24:21;7.20;59.80
40636;DHT22;26642;55.766;37.828;2022-12-18T04:27:02;7.10;59.70
40636;DHT22;26642;55.766;37.828;2022-12-18T04:29:32;7.20;59.70
40636;DHT22;26642;55.766;37.828;2022-12-18T04:31:58;7.10;59.80
40636;DHT22;26642;55.766;37.828;2022-12-18T04:34:26;7.10;59.70
40636;DHT22;26642;55.766;37.828;2022-12-18T04:36:53;7.10;59.70
40636;DHT22;26642;55.766;37.828;2022-12-18T04:39:21;7.10;59.70
40636;DHT22;26642;55.766;37.828;2022-12-18T04:41:50;7.10;59.70
40636;DHT22;26642;55.766;37.828;2022-12-18T04:44:16;7.10;59.80
40636;DHT22;26642;55.766;37.828;2022-12-18T04:46:42;7.10;59.90
40636;DHT22;26642;55.766;37.828;2022-12-18T04:49:08;7.10;59.90
40636;DHT22;26642;55.766;37.828;2022-12-18T04:51:36;7.20;60.00
40636;DHT22;26642;55.766;37.828;2022-12-18T04:54:02;7.20;60.00
40636;DHT22;26642;55.766;37.828;2022-12-18T04:56:28;7.10;60.10
40636;DHT22;26642;55.766;37.828;2022-12-18T04:58:54;7.10;60.10
40636;DHT22;26642;55.766;37.828;2022-12-18T05:01:20;7.10;60.20
40636;DHT22;26642;55.766;37.828;2022-12-18T05:03:46;7.10;60.20
40636;DHT22;26642;55.766;37.828;2022-12-18T05:06:12;7.10;60.20
40636;DHT22;26642;55.766;37.828;2022-12-18T05:08:38;7.10;60.20
40636;DHT22;26642;55.766;37.828;2022-12-18T05:11:09;7.10;60.20
40636;DHT22;26642;55.766;37.828;2022-12-18T05:13:36;7.10;60.20
40636;DHT22;26642;55.766;37.828;2022-12-18T05:16:04;7.10;60.20
40636;DHT22;26642;55.766;37.828;2022-12-18T05:18:30;7.10;60.20
40636;DHT22;26642;55.766;37.828;2022-12-18T05:20:57;7.10;60.20
40636;DHT22;26642;55.766;37.828;2022-12-18T05:23:24;7.10;60.10
40636;DHT22;26642;55.766;37.828;2022-12-18T05:25:54;7.20;60.00
40636;DHT22;26642;55.766;37.828;2022-12-18T05:28:21;7.10;60.00
40636;DHT22;26642;55.766;37.828;2022-12-18T05:30:49;7.10;59.90
40636;DHT22;26642;55.766;37.828;2022-12-18T05:33:16;7.10;59.80
40636;DHT22;26642;55.766;37.828;2022-12-18T05:35:42;7.10;59.70
40636;DHT22;26642;55.766;37.828;2022-12-18T05:38:07;7.10;59.80
40636;DHT22;26642;55.766;37.828;2022-12-18T05:40:33;7.10;59.80
40636;DHT22;26642;55.766;37.828;2022-12-18T05:42:59;7.10;59.70
40636;DHT22;26642;55.766;37.828;2022-12-18T05:45:25;7.10;59.80
40636;DHT22;26642;55.766;37.828;2022-12-18T05:47:51;7.10;59.70
40636;DHT22;26642;55.766;37.828;2022-12-18T05:50:17;7.10;59.80
40636;DHT22;26642;55.766;37.828;2022-12-18T05:52:43;7.10;59.80
40636;DHT22;26642;55.766;37.828;2022-12-18T05:55:09;7.10;59.90
40636;DHT22;26642;55.766;37.828;2022-12-18T05:57:35;7.10;59.90
40636;DHT22;26642;55.766;37.828;2022-12-18T06:00:01;7.10;59.80
40636;DHT22;26642;55.766;37.828;2022-12-18T06:02:37;7.10;59.80
40636;DHT22;26642;55.766;37.828;2022-12-18T06:05:04;7.10;59.70
40636;DHT22;26642;55.766;37.828;2022-12-18T06:07:30;7.10;59.60
40636;DHT22;26642;55.766;37.828;2022-12-18T06:09:57;7.10;59.60
40636;DHT22;26642;55.766;37.828;2022-12-18T06:12:23;7.10;59.70
40636;DHT22;26642;55.766;37.828;2022-12-18T06:14:49;7.10;59.60
40636;DHT22;26642;55.766;37.828;2022-12-18T06:17:15;7.10;59.40
40636;DHT22;26642;55.766;37.828;2022-12-18T06:19:40;7.00;59.40
40636;DHT22;26642;55.766;37.828;2022-12-18T06:22:06;7.00;59.30
40636;DHT22;26642;55.766;37.828;2022-12-18T06:24:32;7.10;59.40
40636;DHT22;26642;55.766;37.828;2022-12-18T06:26:58;7.00;59.30
40636;DHT22;26642;55.766;37.828;2022-12-18T06:29:24;7.00;59.30
40636;DHT22;26642;55.766;37.828;2022-12-18T06:31:50;7.00;59.30
40636;DHT22;26642;55.766;37.828;2022-12-18T06:34:16;7.10;59.40
40636;DHT22;26642;55.766;37.828;2022-12-18T06:36:42;7.10;59.30
40636;DHT22;26642;55.766;37.828;2022-12-18T06:39:08;7.10;59.30
40636;DHT22;26642;55.766;37.828;2022-12-18T06:41:34;7.00;59.30
40636;DHT22;26642;55.766;37.828;2022-12-18T06:44:00;7.10;59.30
40636;DHT22;26642;55.766;37.828;2022-12-18T06:46:27;7.10;59.30
40636;DHT22;26642;55.766;37.828;2022-12-18T06:48:53;7.00;59.30
40636;DHT22;26642;55.766;37.828;2022-12-18T06:51:21;7.10;59.30
40636;DHT22;26642;55.766;37.828;2022-12-18T06:53:47;7.10;59.30
40636;DHT22;26642;55.766;37.828;2022-12-18T06:56:13;7.10;59.50
40636;DHT22;26642;55.766;37.828;2022-12-18T06:58:39;7.00;59.50
40636;DHT22;26642;55.766;37.828;2022-12-18T07:01:08;7.10;59.50
40636;DHT22;26642;55.766;37.828;2022-12-18T07:03:35;7.10;59.50
40636;DHT22;26642;55.766;37.828;2022-12-18T07:06:02;7.10;59.50
40636;DHT22;26642;55.766;37.828;2022-12-18T07:08:29;7.10;59.50
40636;DHT22;26642;55.766;37.828;2022-12-18T07:10:55;7.10;59.50
40636;DHT22;26642;55.766;37.828;2022-12-18T07:13:21;7.10;59.50
40636;DHT22;26642;55.766;37.828;2022-12-18T07:15:48;7.10;59.50
40636;DHT22;26642;55.766;37.828;2022-12-18T07:18:13;7.10;59.40
40636;DHT22;26642;55.766;37.828;2022-12-18T07:20:39;7.10;59.40
40636;DHT22;26642;55.766;37.828;2022-12-18T07:23:05;7.20;59.40
40636;DHT22;26642;55.766;37.828;2022-12-18T07:25:35;7.20;59.30
40636;DHT22;26642;55.766;37.828;2022-12-18T07:28:01;7.20;59.30
40636;DHT22;26642;55.766;37.828;2022-12-18T07:30:27;7.10;59.20
40636;DHT22;26642;55.766;37.828;2022-12-18T07:32:53;7.20;59.20
40636;DHT22;26642;55.766;37.828;2022-12-18T07:35:19;7.20;59.20
40636;DHT22;26642;55.766;37.828;2022-12-18T07:37:45;7.20;64.20
40636;DHT22;26642;55.766;37.828;2022-12-18T07:40:11;7.20;67.50
40636;DHT22;26642;55.766;37.828;2022-12-18T07:42:37;7.30;71.20
40636;DHT22;26642;55.766;37.828;2022-12-18T07:45:04;7.40;72.50
40636;DHT22;26642;55.766;37.828;2022-12-18T07:47:36;7.50;75.90
40636;DHT22;26642;55.766;37.828;2022-12-18T07:50:04;7.70;76.00
40636;DHT22;26642;55.766;37.828;2022-12-18T07:52:30;7.80;73.90
40636;DHT22;26642;55.766;37.828;2022-12-18T07:54:56;7.90;72.10
40636;DHT22;26642;55.766;37.828;2022-12-18T07:57:22;8.00;69.70
40636;DHT22;26642;55.766;37.828;2022-12-18T07:59:48;8.00;67.80
40636;DHT22;26642;55.766;37.828;2022-12-18T08:02:14;8.00;66.40
40636;DHT22;26642;55.766;37.828;2022-12-18T08:04:40;8.00;65.60
40636;DHT22;26642;55.766;37.828;2022-12-18T08:07:06;8.00;65.10
40636;DHT22;26642;55.766;37.828;2022-12-18T08:09:32;8.00;64.80
40636;DHT22;26642;55.766;37.828;2022-12-18T08:11:58;8.00;64.50
40636;DHT22;26642;55.766;37.828;2022-12-18T08:14:24;8.00;64.20
40636;DHT22;26642;55.766;37.828;2022-12-18T08:16:50;8.00;63.90
40636;DHT22;26642;55.766;37.828;2022-12-18T08:19:16;8.00;63.70
40636;DHT22;26642;55.766;37.828;2022-12-18T08:21:42;8.00;63.30
40636;DHT22;26642;55.766;37.828;2022-12-18T08:24:09;8.00;63.10
40636;DHT22;26642;55.766;37.828;2022-12-18T08:26:35;7.90;63.10
40636;DHT22;26642;55.766;37.828;2022-12-18T08:29:01;7.90;63.00
40636;DHT22;26642;55.766;37.828;2022-12-18T08:31:29;7.90;63.20
40636;DHT22;26642;55.766;37.828;2022-12-18T08:33:55;7.90;63.40
40636;DHT22;26642;55.766;37.828;2022-12-18T08:36:22;7.90;63.50
40636;DHT22;26642;55.766;37.828;2022-12-18T08:38:49;7.90;63.70
40636;DHT22;26642;55.766;37.828;2022-12-18T08:41:16;7.90;63.70
40636;DHT22;26642;55.766;37.828;2022-12-18T08:43:43;7.90;63.60
40636;DHT22;26642;55.766;37.828;2022-12-18T08:46:35;7.90;64.40
40636;DHT22;26642;55.766;37.828;2022-12-18T08:49:02;7.90;65.20
40636;DHT22;26642;55.766;37.828;2022-12-18T08:51:28;7.90;65.90
40636;DHT22;26642;55.766;37.828;2022-12-18T08:53:54;7.90;66.40
40636;DHT22;26642;55.766;37.828;2022-12-18T08:56:20;8.00;66.50
40636;DHT22;26642;55.766;37.828;2022-12-18T08:58:46;8.00;66.90
40636;DHT22;26642;55.766;37.828;2022-12-18T09:01:13;8.00;66.90
40636;DHT22;26642;55.766;37.828;2022-12-18T09:03:39;8.10;67.10
40636;DHT22;26642;55.766;37.828;2022-12-18T09:06:06;8.10;67.20
40636;DHT22;26642;55.766;37.828;2022-12-18T09:08:36;8.10;67.30
40636;DHT22;26642;55.766;37.828;2022-12-18T09:11:04;8.10;67.30
40636;DHT22;26642;55.766;37.828;2022-12-18T09:13:36;8.10;67.50
40636;DHT22;26642;55.766;37.828;2022-12-18T09:16:03;8.20;67.50
40636;DHT22;26642;55.766;37.828;2022-12-18T09:18:29;8.20;67.70
40636;DHT22;26642;55.766;37.828;2022-12-18T09:20:55;8.20;67.70
40636;DHT22;26642;55.766;37.828;2022-12-18T09:23:21;8.20;67.70
40636;DHT22;26642;55.766;37.828;2022-12-18T09:25:47;8.30;68.00
40636;DHT22;26642;55.766;37.828;2022-12-18T09:28:18;8.30;68.00
40636;DHT22;26642;55.766;37.828;2022-12-18T09:30:46;8.30;68.10
40636;DHT22;26642;55.766;37.828;2022-12-18T09:33:12;8.30;68.10
40636;DHT22;26642;55.766;37.828;2022-12-18T09:35:40;8.30;68.20
40636;DHT22;26642;55.766;37.828;2022-12-18T09:38:07;8.30;68.30
40636;DHT22;26642;55.766;37.828;2022-12-18T09:40:36;8.40;68.40
40636;DHT22;26642;55.766;37.828;2022-12-18T09:43:06;8.40;68.40
40636;DHT22;26642;55.766;37.828;2022-12-18T09:45:43;8.40;68.60
40636;DHT22;26642;55.766;37.828;2022-12-18T09:48:18;8.40;68.80
40636;DHT22;26642;55.766;37.828;2022-12-18T09:50:47;8.40;68.90
40636;DHT22;26642;55.766;37.828;2022-12-18T09:53:24;8.50;69.00
40636;DHT22;26642;55.766;37.828;2022-12-18T09:55:52;8.50;69.00
40636;DHT22;26642;55.766;37.828;2022-12-18T09:58:26;8.50;69.10
40636;DHT22;26642;55.766;37.828;2022-12-18T10:00:55;8.50;69.20
40636;DHT22;26642;55.766;37.828;2022-12-18T10:03:21;8.50;69.40
40636;DHT22;26642;55.766;37.828;2022-12-18T10:17:02;8.60;71.00
40636;DHT22;26642;55.766;37.828;2022-12-18T10:20:20;8.60;71.00
40636;DHT22;26642;55.766;37.828;2022-12-18T10:27:30;8.70;71.30
40636;DHT22;26642;55.766;37.828;2022-12-18T10:29:57;8.70;71.30
40636;DHT22;26642;55.766;37.828;2022-12-18T10:32:29;8.70;71.30
40636;DHT22;26642;55.766;37.828;2022-12-18T10:34:57;8.80;71.30
40636;DHT22;26642;55.766;37.828;2022-12-18T10:37:27;8.70;71.20
40636;DHT22;26642;55.766;37.828;2022-12-18T10:40:14;8.80;71.30
40636;DHT22;26642;55.766;37.828;2022-12-18T10:42:41;8.80;71.30
40636;DHT22;26642;55.766;37.828;2022-12-18T10:45:16;8.80;71.10
40636;DHT22;26642;55.766;37.828;2022-12-18T10:47:50;8.80;71.50
40636;DHT22;26642;55.766;37.828;2022-12-18T10:50:28;8.80;71.60
40636;DHT22;26642;55.766;37.828;2022-12-18T10:52:56;8.80;71.60
40636;DHT22;26642;55.766;37.828;2022-12-18T10:55:32;8.80;71.60
40636;DHT22;26642;55.766;37.828;2022-12-18T11:01:13;8.90;72.00
40636;DHT22;26642;55.766;37.828;2022-12-18T11:03:45;8.90;72.00
40636;DHT22;26642;55.766;37.828;2022-12-18T11:06:15;8.90;72.00
40636;DHT22;26642;55.766;37.828;2022-12-18T11:08:43;8.90;72.20
40636;DHT22;26642;55.766;37.828;2022-12-18T11:11:21;8.90;72.20
40636;DHT22;26642;55.766;37.828;2022-12-18T11:13:59;8.90;72.20
40636;DHT22;26642;55.766;37.828;2022-12-18T11:16:28;8.90;72.20
40636;DHT22;26642;55.766;37.828;2022-12-18T11:19:10;8.90;72.40
40636;DHT22;26642;55.766;37.828;2022-12-18T11:21:42;8.90;72.00
40636;DHT22;26642;55.766;37.828;2022-12-18T11:24:29;9.00;71.90
40636;DHT22;26642;55.766;37.828;2022-12-18T11:26:58;9.00;71.80
40636;DHT22;26642;55.766;37.828;2022-12-18T11:29:37;9.00;71.80
40636;DHT22;26642;55.766;37.828;2022-12-18T11:34:53;9.00;71.50
40636;DHT22;26642;55.766;37.828;2022-12-18T11:37:21;9.00;71.50
40636;DHT22;26642;55.766;37.828;2022-12-18T11:39:56;9.00;71.40
40636;DHT22;26642;55.766;37.828;2022-12-18T11:42:37;9.00;71.40
40636;DHT22;26642;55.766;37.828;2022-12-18T11:50:51;9.00;71.10
40636;DHT22;26642;55.766;37.828;2022-12-18T11:53:18;9.00;71.20
40636;DHT22;26642;55.766;37.828;2022-12-18T12:00:59;9.00;71.10
40636;DHT22;26642;55.766;37.828;2022-12-18T12:09:38;9.00;70.80
40636;DHT22;26642;55.766;37.828;2022-12-18T12:12:26;9.00;70.60
40636;DHT22;26642;55.766;37.828;2022-12-18T12:17:38;9.00;70.60
40636;DHT22;26642;55.766;37.828;2022-12-18T12:20:37;9.00;70.60
40636;DHT22;26642;55.766;37.828;2022-12-18T12:37:25;9.00;71.00
40636;DHT22;26642;55.766;37.828;2022-12-18T12:39:54;9.00;71.10
40636;DHT22;26642;55.766;37.828;2022-12-18T12:42:40;9.00;71.10
40636;DHT22;26642;55.766;37.828;2022-12-18T12:45:37;9.00;71.20
40636;DHT22;26642;55.766;37.828;2022-12-18T12:48:15;9.00;71.20
40636;DHT22;26642;55.766;37.828;2022-12-18T12:50:42;9.00;70.90
40636;DHT22;26642;55.766;37.828;2022-12-18T12:53:12;9.00;70.70
40636;DHT22;26642;55.766;37.828;2022-12-18T12:55:41;9.00;70.50
40636;DHT22;26642;55.766;37.828;2022-12-18T13:09:12;9.00;70.00
40636;DHT22;26642;55.766;37.828;2022-12-18T13:11:45;9.00;70.20
40636;DHT22;26642;55.766;37.828;2022-12-18T13:14:35;9.00;70.20
40636;DHT22;26642;55.766;37.828;2022-12-18T13:19:40;8.90;70.20
40636;DHT22;26642;55.766;37.828;2022-12-18T13:25:03;8.90;70.10
40636;DHT22;26642;55.766;37.828;2022-12-18T13:27:46;8.90;70.10
40636;DHT22;26642;55.766;37.828;2022-12-18T13:43:45;9.00;72.90
40636;DHT22;26642;55.766;37.828;2022-12-18T13:48:56;9.00;72.80
40636;DHT22;26642;55.766;37.828;2022-12-18T13:51:24;9.00;72.70
40636;DHT22;26642;55.766;37.828;2022-12-18T13:54:02;9.00;72.70
40636;DHT22;26642;55.766;37.828;2022-12-18T13:56:31;9.00;72.70
40636;DHT22;26642;55.766;37.828;2022-12-18T14:02:07;9.00;73.30
40636;DHT22;26642;55.766;37.828;2022-12-18T14:04:35;9.00;72.60
40636;DHT22;26642;55.766;37.828;2022-12-18T14:07:17;9.00;72.60
40636;DHT22;26642;55.766;37.828;2022-12-18T14:09:47;9.00;72.60
40636;DHT22;26642;55.766;37.828;2022-12-18T14:12:25;9.00;72.60
40636;DHT22;26642;55.766;37.828;2022-12-18T14:15:40;9.00;72.50
40636;DHT22;26642;55.766;37.828;2022-12-18T14:18:17;9.00;72.40
40636;DHT22;26642;55.766;37.828;2022-12-18T14:20:50;9.00;72.40
40636;DHT22;26642;55.766;37.828;2022-12-18T14:26:03;9.00;72.20
40636;DHT22;26642;55.766;37.828;2022-12-18T14:28:29;9.00;72.10
40636;DHT22;26642;55.766;37.828;2022-12-18T14:30:55;9.00;72.20
40636;DHT22;26642;55.766;37.828;2022-12-18T14:33:24;9.00;72.00
40636;DHT22;26642;55.766;37.828;2022-12-18T14:35:59;9.00;72.20
40636;DHT22;26642;55.766;37.828;2022-12-18T14:38:37;9.00;72.10
40636;DHT22;26642;55.766;37.828;2022-12-18T14:43:38;9.00;71.90
40636;DHT22;26642;55.766;37.828;2022-12-18T14:46:24;9.00;71.90
40636;DHT22;26642;55.766;37.828;2022-12-18T14:48:51;9.00;71.90
40636;DHT22;26642;55.766;37.828;2022-12-18T14:51:19;9.00;71.80
40636;DHT22;26642;55.766;37.828;2022-12-18T14:53:48;9.00;71.80
40636;DHT22;26642;55.766;37.828;2022-12-18T14:56:30;9.10;71.70
40636;DHT22;26642;55.766;37.828;2022-12-18T14:59:03;9.00;71.60
40636;DHT22;26642;55.766;37.828;2022-12-18T15:01:33;9.00;71.60
40636;DHT22;26642;55.766;37.828;2022-12-18T15:04:02;9.00;71.60
40636;DHT22;26642;55.766;37.828;2022-12-18T15:06:34;9.00;71.70
40636;DHT22;26642;55.766;37.828;2022-12-18T15:09:03;9.00;71.50
40636;DHT22;26642;55.766;37.828;2022-12-18T15:11:45;9.00;71.50
40636;DHT22;26642;55.766;37.828;2022-12-18T15:14:31;9.10;71.50
40636;DHT22;26642;55.766;37.828;2022-12-18T15:16:59;9.10;71.50
40636;DHT22;26642;55.766;37.828;2022-12-18T15:19:39;9.00;71.20
40636;DHT22;26642;55.766;37.828;2022-12-18T15:24:47;9.10;71.20
40636;DHT22;26642;55.766;37.828;2022-12-18T15:27:25;9.10;71.20
40636;DHT22;26642;55.766;37.828;2022-12-18T15:32:38;9.00;70.90
40636;DHT22;26642;55.766;37.828;2022-12-18T15:35:22;9.10;70.80
40636;DHT22;26642;55.766;37.828;2022-12-18T15:37:49;9.10;70.60
40636;DHT22;26642;55.766;37.828;2022-12-18T15:40:22;9.00;70.40
40636;DHT22;26642;55.766;37.828;2022-12-18T15:42:56;9.10;70.40
40636;DHT22;26642;55.766;37.828;2022-12-18T15:45:41;9.10;70.60
40636;DHT22;26642;55.766;37.828;2022-12-18T15:48:38;9.10;70.50
40636;DHT22;26642;55.766;37.828;2022-12-18T15:51:08;9.10;70.40
40636;DHT22;26642;55.766;37.828;2022-12-18T15:53:35;9.10;70.10
40636;DHT22;26642;55.766;37.828;2022-12-18T15:56:01;9.10;70.00
40636;DHT22;26642;55.766;37.828;2022-12-18T15:58:45;9.00;69.80
40636;DHT22;26642;55.766;37.828;2022-12-18T16:01:11;9.00;69.80
40636;DHT22;26642;55.766;37.828;2022-12-18T16:03:38;9.00;69.70
40636;DHT22;26642;55.766;37.828;2022-12-18T16:06:04;9.10;69.90
40636;DHT22;26642;55.766;37.828;2022-12-18T16:08:30;9.00;69.80
40636;DHT22;26642;55.766;37.828;2022-12-18T16:10:57;9.10;70.00
40636;DHT22;26642;55.766;37.828;2022-12-18T16:13:23;9.10;69.90
40636;DHT22;26642;55.766;37.828;2022-12-18T16:15:50;9.00;69.70
40636;DHT22;26642;55.766;37.828;2022-12-18T16:18:16;9.00;69.50
40636;DHT22;26642;55.766;37.828;2022-12-18T16:20:42;9.00;69.40
40636;DHT22;26642;55.766;37.828;2022-12-18T16:23:08;9.00;69.30
40636;DHT22;26642;55.766;37.828;2022-12-18T16:25:34;9.00;69.20
40636;DHT22;26642;55.766;37.828;2022-12-18T16:28:00;9.00;69.20
40636;DHT22;26642;55.766;37.828;2022-12-18T16:30:28;9.00;69.00
40636;DHT22;26642;55.766;37.828;2022-12-18T16:32:59;9.00;68.70
40636;DHT22;26642;55.766;37.828;2022-12-18T16:35:26;9.00;68.50
40636;DHT22;26642;55.766;37.828;2022-12-18T16:37:52;9.00;68.30
40636;DHT22;26642;55.766;37.828;2022-12-18T16:40:19;9.00;68.10
40636;DHT22;26642;55.766;37.828;2022-12-18T16:42:46;9.00;68.00
40636;DHT22;26642;55.766;37.828;2022-12-18T16:45:15;9.00;67.90
40636;DHT22;26642;55.766;37.828;2022-12-18T16:47:42;9.00;67.70
40636;DHT22;26642;55.766;37.828;2022-12-18T16:50:09;9.00;67.60
40636;DHT22;26642;55.766;37.828;2022-12-18T16:52:35;9.00;67.60
40636;DHT22;26642;55.766;37.828;2022-12-18T16:55:02;9.00;67.60
40636;DHT22;26642;55.766;37.828;2022-12-18T16:57:28;9.00;67.80
40636;DHT22;26642;55.766;37.828;2022-12-18T16:59:54;9.00;68.10
40636;DHT22;26642;55.766;37.828;2022-12-18T17:02:25;9.00;68.30
40636;DHT22;26642;55.766;37.828;2022-12-18T17:04:55;9.00;68.40
40636;DHT22;26642;55.766;37.828;2022-12-18T17:07:23;9.00;68.40
40636;DHT22;26642;55.766;37.828;2022-12-18T17:09:49;9.00;68.60
40636;DHT22;26642;55.766;37.828;2022-12-18T17:12:18;9.00;68.60
40636;DHT22;26642;55.766;37.828;2022-12-18T17:14:44;9.00;68.80
40636;DHT22;26642;55.766;37.828;2022-12-18T17:17:10;9.00;69.10
40636;DHT22;26642;55.766;37.828;2022-12-18T17:19:36;9.00;69.20
40636;DHT22;26642;55.766;37.828;2022-12-18T17:22:03;9.00;69.60
40636;DHT22;26642;55.766;37.828;2022-12-18T17:24:29;9.00;69.70
40636;DHT22;26642;55.766;37.828;2022-12-18T17:26:55;9.00;70.20
40636;DHT22;26642;55.766;37.828;2022-12-18T17:29:21;9.00;70.70
40636;DHT22;26642;55.766;37.828;2022-12-18T17:31:48;9.00;71.10
40636;DHT22;26642;55.766;37.828;2022-12-18T17:34:14;9.00;72.00
40636;DHT22;26642;55.766;37.828;2022-12-18T17:36:40;9.10;72.70
40636;DHT22;26642;55.766;37.828;2022-12-18T17:39:13;9.00;73.30
40636;DHT22;26642;55.766;37.828;2022-12-18T17:41:40;9.10;73.90
40636;DHT22;26642;55.766;37.828;2022-12-18T17:44:07;9.10;74.00
40636;DHT22;26642;55.766;37.828;2022-12-18T17:46:34;9.10;73.80
40636;DHT22;26642;55.766;37.828;2022-12-18T17:49:01;9.10;73.70
40636;DHT22;26642;55.766;37.828;2022-12-18T17:51:28;9.10;73.30